createdAt,value
2023-03-02T00:01:11.330Z,5.58
2023-03-02T00:06:13.612Z,5.54
2023-03-02T00:11:16.074Z,5.57
2023-03-02T00:16:18.510Z,5.33
2023-03-02T00:21:20.856Z,5.32
2023-03-02T00:26:23.197Z,5.15
2023-03-02T00:31:25.529Z,4.83
2023-03-02T00:36:27.833Z,4.85
2023-03-02T00:41:30.152Z,4.91
2023-03-02T00:46:32.809Z,5.08
2023-03-02T00:51:35.139Z,4.93
2023-03-02T00:56:37.392Z,5.11
2023-03-02T01:01:41.314Z,5.05
2023-03-02T01:06:47.506Z,4.97
2023-03-02T01:11:49.922Z,4.84
2023-03-02T01:16:52.452Z,5.07
2023-03-02T01:21:54.768Z,5.08
2023-03-02T01:26:57.246Z,4.82
2023-03-02T01:31:59.597Z,4.87
2023-03-02T01:37:01.947Z,5.03
2023-03-02T01:42:04.506Z,4.88
2023-03-02T01:47:25.178Z,5.08
2023-03-02T01:52:39.644Z,4.97
2023-03-02T01:57:47.144Z,5.02
2023-03-02T02:02:50.842Z,4.91
2023-03-02T02:07:53.331Z,5.02
2023-03-02T02:12:55.977Z,4.96
2023-03-02T02:17:58.164Z,5.04
2023-03-02T02:23:06.693Z,5.18
2023-03-02T02:28:16.875Z,5.16
2023-03-02T02:33:25.054Z,5.10
2023-03-02T02:38:28.708Z,5.16
2023-03-02T02:43:33.078Z,5.23
2023-03-02T02:48:35.954Z,5.18
2023-03-02T02:53:49.948Z,5.05
2023-03-02T02:58:55.837Z,5.22
2023-03-02T03:04:03.307Z,5.30
2023-03-02T03:09:07.690Z,5.15
2023-03-02T03:14:18.987Z,4.95
2023-03-02T03:19:30.758Z,4.82
2023-03-02T03:24:35.240Z,4.63
2023-03-02T03:29:42.511Z,4.50
2023-03-02T03:34:47.359Z,4.24
2023-03-02T03:39:59.444Z,4.04
2023-03-02T03:45:02.292Z,4.12
2023-03-02T03:50:08.707Z,4.09
2023-03-02T03:55:12.712Z,4.02
2023-03-02T04:00:18.070Z,4.15
2023-03-02T04:05:36.710Z,4.29
2023-03-02T04:10:40.550Z,4.35
2023-03-02T04:15:46.794Z,4.36
2023-03-02T04:20:49.925Z,4.25
2023-03-02T04:25:52.440Z,4.39
2023-03-02T04:30:57.560Z,4.56
2023-03-02T04:36:00.324Z,4.58
2023-03-02T04:41:03.466Z,4.59
2023-03-02T04:46:05.742Z,4.70
2023-03-02T04:51:17.406Z,4.44
2023-03-02T04:56:20.425Z,4.40
2023-03-02T05:01:23.464Z,4.32
2023-03-02T05:06:25.613Z,4.36
2023-03-02T05:16:48.098Z,4.57
2023-03-02T05:21:50.671Z,4.68
2023-03-02T05:26:52.960Z,4.49
2023-03-02T05:31:55.472Z,4.36
2023-03-02T05:36:58.497Z,4.28
2023-03-02T05:42:00.851Z,4.38
2023-03-02T05:47:03.209Z,4.51
2023-03-02T05:52:05.610Z,4.54
2023-03-02T05:57:08.051Z,4.48
2023-03-02T06:02:10.602Z,4.47
2023-03-02T06:07:13.600Z,4.53
2023-03-02T06:12:15.821Z,4.49
2023-03-02T06:17:18.199Z,4.48
2023-03-02T06:22:20.723Z,4.61
2023-03-02T06:27:22.999Z,4.37
2023-03-02T06:32:25.369Z,4.56
2023-03-02T06:37:29.544Z,4.60
2023-03-02T06:42:31.752Z,4.49
2023-03-02T06:47:34.170Z,4.44
2023-03-02T06:52:36.803Z,4.32
2023-03-02T06:57:39.709Z,4.18
2023-03-02T07:02:42.242Z,4.19
2023-03-02T07:07:44.626Z,4.32
2023-03-02T07:12:46.907Z,4.28
2023-03-02T07:17:49.045Z,4.36
2023-03-02T07:22:51.337Z,4.71
2023-03-02T07:27:53.780Z,4.83
2023-03-02T07:32:56.289Z,5.04
2023-03-02T07:37:58.539Z,4.98
2023-03-02T07:43:00.652Z,5.24
2023-03-02T07:48:03.162Z,5.20
2023-03-02T07:53:05.479Z,5.04
2023-03-02T07:58:08.005Z,4.92
2023-03-02T08:03:10.537Z,4.93
2023-03-02T08:08:12.941Z,4.91
2023-03-02T08:13:15.544Z,5.19
2023-03-02T08:18:20.207Z,5.17
2023-03-02T08:23:23.282Z,5.22
2023-03-02T08:28:25.598Z,5.34
2023-03-02T08:33:29.118Z,5.42
2023-03-02T08:38:32.023Z,5.57
2023-03-02T08:43:35.355Z,5.77
2023-03-02T08:48:37.618Z,5.42
2023-03-02T08:53:42.185Z,5.33
2023-03-02T08:58:44.494Z,5.71
2023-03-02T09:03:47.037Z,6.16
2023-03-02T09:08:50.070Z,6.36
2023-03-02T09:13:52.304Z,6.46
2023-03-02T09:18:55.304Z,6.53
2023-03-02T09:23:58.694Z,6.41
2023-03-02T09:29:01.057Z,6.33
2023-03-02T09:34:04.408Z,6.58
2023-03-02T09:39:12.471Z,6.35
2023-03-02T09:44:47.042Z,6.61
2023-03-02T09:50:31.231Z,6.83
2023-03-02T09:55:36.996Z,6.73
2023-03-02T10:00:44.309Z,6.68
2023-03-02T10:05:49.958Z,6.94
2023-03-02T10:11:29.253Z,6.87
2023-03-02T10:16:44.567Z,6.60
2023-03-02T10:21:49.704Z,6.65
2023-03-02T10:26:55.481Z,6.84
2023-03-02T10:32:14.251Z,6.81
2023-03-02T10:37:21.991Z,6.82
2023-03-02T10:42:40.683Z,6.86
2023-03-02T10:47:43.046Z,6.96
2023-03-02T10:52:59.469Z,6.95
2023-03-02T10:58:25.634Z,6.87
2023-03-02T11:03:29.212Z,6.65
2023-03-02T11:08:33.205Z,6.79
2023-03-02T11:13:38.281Z,6.79
2023-03-02T11:18:42.400Z,6.82
2023-03-02T11:23:58.086Z,6.85
2023-03-02T11:29:12.148Z,6.92
2023-03-02T11:34:34.871Z,6.69
2023-03-02T11:40:09.552Z,6.83
2023-03-02T11:45:11.894Z,6.86
2023-03-02T11:50:17.001Z,6.95
2023-03-02T11:55:25.673Z,6.46
2023-03-02T12:00:35.930Z,6.46
2023-03-02T12:05:40.230Z,6.41
2023-03-02T12:10:56.883Z,6.18
2023-03-02T12:15:59.787Z,6.00
2023-03-02T12:21:08.365Z,5.63
2023-03-02T12:26:22.478Z,5.47
2023-03-02T12:31:25.838Z,5.53
2023-03-02T12:36:42.400Z,5.18
2023-03-02T12:42:28.760Z,5.23
2023-03-02T12:47:32.978Z,5.22
2023-03-02T12:52:37.315Z,5.04
2023-03-02T12:57:51.438Z,4.99
2023-03-02T13:02:56.396Z,4.96
2023-03-02T13:08:08.677Z,5.02
2023-03-02T13:13:16.409Z,4.94
2023-03-02T13:18:20.984Z,5.04
2023-03-02T13:23:23.522Z,5.08
2023-03-02T13:28:35.832Z,5.24
2023-03-02T13:33:45.473Z,5.11
2023-03-02T13:38:59.877Z,5.11
2023-03-02T13:44:27.626Z,5.10
2023-03-02T13:49:37.056Z,5.12
2023-03-02T13:54:44.164Z,4.99
2023-03-02T13:59:46.571Z,4.72
2023-03-02T14:04:48.836Z,4.72
2023-03-02T14:09:51.060Z,4.72
2023-03-02T14:14:56.189Z,4.71
2023-03-02T14:19:58.611Z,4.35
2023-03-02T14:25:00.756Z,4.40
2023-03-02T14:30:12.577Z,4.45
2023-03-02T14:35:16.866Z,4.53
2023-03-02T14:40:27.170Z,4.47
2023-03-02T14:45:30.913Z,4.58
2023-03-02T14:50:39.039Z,4.64
2023-03-02T14:55:42.605Z,4.65
2023-03-02T15:00:45.468Z,4.66
2023-03-02T15:06:00.347Z,4.54
2023-03-02T15:11:03.235Z,4.59
2023-03-02T15:16:05.906Z,4.53
2023-03-02T15:21:15.978Z,4.67
2023-03-02T15:26:18.529Z,4.90
2023-03-02T15:31:21.616Z,4.84
2023-03-02T15:36:23.927Z,5.05
2023-03-02T15:41:26.339Z,4.79
2023-03-02T15:46:28.558Z,4.82
2023-03-02T15:51:30.797Z,4.71
2023-03-02T15:56:43.804Z,4.64
2023-03-02T16:01:46.842Z,4.59
2023-03-02T16:06:49.244Z,4.51
2023-03-02T16:11:51.942Z,4.45
2023-03-02T16:16:54.128Z,4.44
2023-03-02T16:21:56.742Z,4.26
2023-03-02T16:26:59.531Z,4.40
2023-03-02T16:32:01.832Z,4.26
2023-03-02T16:37:04.244Z,4.37
2023-03-02T16:42:06.577Z,4.36
2023-03-02T16:47:08.826Z,4.32
2023-03-02T16:52:11.426Z,4.43
2023-03-02T16:57:13.700Z,4.47
2023-03-02T17:02:16.112Z,4.35
2023-03-02T17:07:19.621Z,4.39
2023-03-02T17:12:21.972Z,4.37
2023-03-02T17:17:24.339Z,4.35
2023-03-02T17:22:26.581Z,4.43
2023-03-02T17:27:28.876Z,4.52
2023-03-02T17:32:31.503Z,4.52
2023-03-02T17:37:34.653Z,4.66
2023-03-02T17:42:39.034Z,4.54
2023-03-02T17:47:41.590Z,4.44
2023-03-02T17:52:44.245Z,4.39
2023-03-02T17:57:46.667Z,4.43
2023-03-02T18:02:49.193Z,4.58
2023-03-02T18:07:53.100Z,4.66
2023-03-02T18:12:57.049Z,4.72
2023-03-02T18:17:59.234Z,4.76
2023-03-02T18:23:02.366Z,4.74
2023-03-02T18:28:04.670Z,4.75
2023-03-02T18:33:07.516Z,4.66
2023-03-02T18:38:09.764Z,4.72
2023-03-02T18:43:12.093Z,4.65
2023-03-02T18:48:14.233Z,4.68
2023-03-02T18:53:16.783Z,4.71
2023-03-02T18:58:21.910Z,4.83
2023-03-02T19:03:25.040Z,4.85
2023-03-02T19:08:27.956Z,5.01
2023-03-02T19:13:30.322Z,5.02
2023-03-02T19:18:33.631Z,5.02
2023-03-02T19:23:36.207Z,4.84
2023-03-02T19:28:40.348Z,4.94
2023-03-02T19:33:45.444Z,4.99
2023-03-02T19:38:47.699Z,5.01
2023-03-02T19:43:50.346Z,5.12
2023-03-02T19:48:52.711Z,4.96
2023-03-02T19:53:55.065Z,5.22
2023-03-02T19:58:58.014Z,5.14
2023-03-02T20:04:00.348Z,5.10
2023-03-02T20:09:05.786Z,5.09
2023-03-02T20:14:08.146Z,5.08
2023-03-02T20:19:11.698Z,4.96
2023-03-02T20:24:17.190Z,4.96
2023-03-02T20:29:20.085Z,4.95
2023-03-02T20:34:22.405Z,4.92
2023-03-02T20:39:30.970Z,5.14
2023-03-02T20:44:58.874Z,5.14
